Time;durP1;ratioP1;P1;durP2;ratioP2;P2;SDS_P1;SDS_P2;PMS_P1;PMS_P2;Temp;Humidity;BMP_temperature;BMP_pressure;BME280_temperature;BME280_humidity;BME280_pressure;Samples;Min_cycle;Max_cycle;Signal;HPM_P1;HPM_P2
2022/07/29 00:02:23;;;;;;;2.70;1.30;;;16.60;85.80;;;;;;5051639;28;20048;-43
2022/07/29 00:04:49;;;;;;;5.65;1.15;;;16.60;85.70;;;;;;5064058;28;20571;-43
2022/07/29 00:07:18;;;;;;;2.42;1.05;;;16.60;85.80;;;;;;5071264;28;20151;-43
2022/07/29 00:09:44;;;;;;;3.83;1.40;;;16.50;85.80;;;;;;5063367;28;20121;-43
2022/07/29 00:12:11;;;;;;;3.42;1.30;;;16.60;85.80;;;;;;5039489;28;20086;-43
2022/07/29 00:14:38;;;;;;;2.13;1.10;;;16.60;86.20;;;;;;5071778;28;20056;-43
2022/07/29 00:17:05;;;;;;;2.80;1.40;;;16.50;86.00;;;;;;5071712;28;20068;-43
2022/07/29 00:19:31;;;;;;;5.07;1.30;;;16.50;86.40;;;;;;5070828;28;20439;-43
2022/07/29 00:21:58;;;;;;;2.92;1.30;;;16.50;86.70;;;;;;5064361;28;20467;-42
2022/07/29 00:24:26;;;;;;;3.42;1.17;;;16.40;86.90;;;;;;5067348;28;20052;-43
2022/07/29 00:26:53;;;;;;;4.25;1.50;;;16.40;87.10;;;;;;5062832;28;20120;-43
2022/07/29 00:29:20;;;;;;;3.55;1.25;;;16.40;86.90;;;;;;5061205;28;20132;-43
2022/07/29 00:31:47;;;;;;;5.95;1.48;;;16.40;87.30;;;;;;5054822;28;20051;-43
2022/07/29 00:36:54;;;;;;;3.05;1.45;;;16.40;87.10;;;;;;5067805;28;20049;-43
2022/07/29 00:39:21;;;;;;;2.15;1.00;;;16.30;87.40;;;;;;5064672;28;20040;-44
2022/07/29 00:41:54;;;;;;;3.88;1.30;;;16.30;87.20;;;;;;5068335;28;20127;-44
2022/07/29 00:44:21;;;;;;;2.70;1.40;;;16.30;87.60;;;;;;5051394;28;20128;-44
2022/07/29 00:46:48;;;;;;;6.22;1.50;;;16.30;87.70;;;;;;5054630;28;20090;-42
2022/07/29 00:49:14;;;;;;;3.67;1.40;;;16.20;87.90;;;;;;5066597;28;20123;-43
2022/07/29 00:51:41;;;;;;;3.25;1.80;;;16.20;88.10;;;;;;5068514;28;20127;-44
2022/07/29 00:54:08;;;;;;;2.42;1.25;;;16.20;88.30;;;;;;5061348;28;20056;-42
2022/07/29 00:56:35;;;;;;;2.58;1.42;;;16.10;88.00;;;;;;5065977;28;20053;-43
2022/07/29 00:59:03;;;;;;;2.88;1.60;;;16.20;88.20;;;;;;5064655;28;20528;-43
2022/07/29 01:01:29;;;;;;;6.68;1.63;;;16.10;88.30;;;;;;5051402;28;20148;-43
2022/07/29 01:03:56;;;;;;;3.55;1.50;;;16.10;88.40;;;;;;5052467;28;20124;-43
2022/07/29 01:06:23;;;;;;;5.20;1.52;;;16.10;88.50;;;;;;5055498;28;20068;-43
2022/07/29 01:08:50;;;;;;;4.40;1.60;;;16.10;89.00;;;;;;5069695;28;20056;-43
2022/07/29 01:11:16;;;;;;;5.03;1.70;;;16.10;89.30;;;;;;5072285;28;20079;-43
2022/07/29 01:13:43;;;;;;;5.13;1.63;;;16.10;89.30;;;;;;5050334;28;20083;-43
2022/07/29 01:16:14;;;;;;;7.20;1.70;;;16.10;89.30;;;;;;5055667;28;20053;-44
2022/07/29 01:18:42;;;;;;;4.50;1.52;;;16.10;89.60;;;;;;5041313;28;20132;-44
2022/07/29 01:21:31;;;;;;;3.70;1.45;;;16.00;89.60;;;;;;5057906;28;20065;-43
2022/07/29 01:24:16;;;;;;;3.65;1.50;;;16.00;89.70;;;;;;5070273;28;20084;-43
2022/07/29 01:26:46;;;;;;;5.70;1.67;;;16.00;89.70;;;;;;5058342;28;20045;-43
2022/07/29 01:29:19;;;;;;;6.47;1.52;;;16.00;90.00;;;;;;5063233;28;20036;-43
2022/07/29 01:31:48;;;;;;;3.20;1.60;;;16.00;90.10;;;;;;5039277;28;20103;-44
2022/07/29 01:34:19;;;;;;;3.80;1.25;;;16.00;90.30;;;;;;5051648;28;20037;-43
2022/07/29 01:36:47;;;;;;;3.10;1.23;;;16.00;90.30;;;;;;5072792;28;20094;-43
2022/07/29 01:39:17;;;;;;;4.10;1.17;;;16.00;90.70;;;;;;5057339;28;20083;-43
2022/07/29 01:41:48;;;;;;;4.05;1.98;;;16.00;90.50;;;;;;5054206;28;20076;-43
2022/07/29 01:44:18;;;;;;;5.43;1.95;;;15.90;90.50;;;;;;5053981;28;20077;-42
2022/07/29 01:46:47;;;;;;;5.75;1.75;;;15.90;90.50;;;;;;5035365;28;20081;-43
2022/07/29 01:49:15;;;;;;;3.90;1.75;;;15.90;90.60;;;;;;5067549;28;20127;-43
2022/07/29 01:51:44;;;;;;;2.97;1.73;;;15.90;90.60;;;;;;5075303;28;20451;-43
2022/07/29 01:54:13;;;;;;;3.38;1.30;;;15.90;90.50;;;;;;5071012;28;20124;-43
2022/07/29 01:56:40;;;;;;;5.53;1.88;;;15.90;90.70;;;;;;5071943;28;20084;-43
2022/07/29 01:59:08;;;;;;;7.28;2.20;;;16.00;90.60;;;;;;5043125;28;20129;-43
2022/07/29 02:01:36;;;;;;;3.85;1.33;;;16.00;90.80;;;;;;5057178;28;20048;-43
2022/07/29 02:04:03;;;;;;;3.03;1.40;;;15.90;90.70;;;;;;5072035;28;20424;-43
2022/07/29 02:06:29;;;;;;;3.33;1.50;;;16.00;90.80;;;;;;5054390;28;20483;-43
2022/07/29 02:08:56;;;;;;;4.63;1.50;;;15.90;90.80;;;;;;5067986;28;20055;-43
2022/07/29 02:11:23;;;;;;;7.80;1.42;;;15.90;90.90;;;;;;5071987;28;20131;-43
2022/07/29 02:13:50;;;;;;;4.22;1.50;;;15.90;90.90;;;;;;5060483;28;20098;-44
2022/07/29 02:16:17;;;;;;;4.65;1.40;;;15.90;90.90;;;;;;5055943;28;20492;-43
2022/07/29 02:18:45;;;;;;;3.75;1.20;;;15.90;91.00;;;;;;5063675;28;20124;-43
2022/07/29 02:21:12;;;;;;;2.35;1.40;;;15.90;90.90;;;;;;5072016;28;20057;-43
2022/07/29 02:23:39;;;;;;;3.40;1.60;;;15.90;91.00;;;;;;5069053;28;20048;-43
2022/07/29 02:26:06;;;;;;;7.75;1.55;;;15.90;91.00;;;;;;5053967;28;20048;-43
2022/07/29 02:28:32;;;;;;;4.78;1.60;;;15.90;91.00;;;;;;5067077;28;20044;-43
2022/07/29 02:31:00;;;;;;;4.55;1.42;;;15.90;91.10;;;;;;5045819;28;20117;-43
2022/07/29 02:33:27;;;;;;;4.28;1.63;;;15.80;91.10;;;;;;5046017;28;20053;-44
2022/07/29 02:35:55;;;;;;;5.53;1.65;;;15.80;91.10;;;;;;5054106;28;20092;-43
2022/07/29 02:41:11;;;;;;;7.32;1.40;;;15.80;91.30;;;;;;5053996;28;20045;-44
2022/07/29 02:43:37;;;;;;;9.00;1.58;;;15.80;91.30;;;;;;5062544;28;20044;-43
2022/07/29 02:46:05;;;;;;;9.60;1.90;;;15.80;91.30;;;;;;5040417;28;20088;-44
2022/07/29 02:48:35;;;;;;;3.33;1.40;;;15.80;91.30;;;;;;5056201;28;20036;-44
2022/07/29 02:51:06;;;;;;;6.88;1.45;;;15.80;91.40;;;;;;5065470;28;20391;-43
2022/07/29 02:53:34;;;;;;;4.68;1.20;;;15.80;91.40;;;;;;5071636;28;20128;-43
2022/07/29 02:56:01;;;;;;;5.57;1.60;;;15.80;91.40;;;;;;5056186;28;20053;-44
2022/07/29 02:58:29;;;;;;;4.63;1.60;;;15.80;91.40;;;;;;5057489;28;20061;-43
2022/07/29 03:00:56;;;;;;;4.30;1.38;;;15.80;91.40;;;;;;5051615;28;20049;-43
2022/07/29 03:03:22;;;;;;;5.85;1.80;;;15.80;91.50;;;;;;5061304;28;20076;-44
2022/07/29 03:05:49;;;;;;;7.63;1.67;;;15.80;91.60;;;;;;5064625;28;20144;-43
2022/07/29 03:08:17;;;;;;;7.05;1.50;;;15.80;91.70;;;;;;5058241;28;20083;-43
2022/07/29 03:10:45;;;;;;;6.60;1.63;;;15.80;91.80;;;;;;5071881;28;20045;-44
2022/07/29 03:13:12;;;;;;;4.05;1.83;;;15.70;91.80;;;;;;5065480;28;20052;-43
2022/07/29 03:15:38;;;;;;;3.38;1.55;;;15.70;91.80;;;;;;5053293;28;20048;-43
2022/07/29 03:18:06;;;;;;;4.90;1.92;;;15.70;91.90;;;;;;5065593;28;20098;-43
2022/07/29 03:20:33;;;;;;;4.45;1.67;;;15.70;92.00;;;;;;5057811;28;20087;-43
2022/07/29 03:23:00;;;;;;;4.15;1.33;;;15.70;92.10;;;;;;5055619;28;20485;-43
2022/07/29 03:25:28;;;;;;;3.28;1.33;;;15.70;92.00;;;;;;5070268;28;20052;-43
2022/07/29 03:27:54;;;;;;;2.03;1.35;;;15.70;92.10;;;;;;5061962;28;20076;-43
2022/07/29 03:30:21;;;;;;;4.38;1.60;;;15.70;92.20;;;;;;5043065;28;20464;-42
2022/07/29 03:32:48;;;;;;;4.68;1.55;;;15.60;92.20;;;;;;5053565;28;20114;-43
2022/07/29 03:35:16;;;;;;;3.10;1.38;;;15.70;92.30;;;;;;5046788;28;20116;-43
2022/07/29 03:37:43;;;;;;;3.92;1.70;;;15.60;92.20;;;;;;5044835;28;20537;-43
2022/07/29 03:40:10;;;;;;;6.93;1.40;;;15.60;92.20;;;;;;5052330;28;20452;-43
2022/07/29 03:42:40;;;;;;;3.17;1.60;;;15.60;92.40;;;;;;5061053;28;20441;-43
2022/07/29 03:45:09;;;;;;;2.72;1.52;;;15.60;92.30;;;;;;5063360;28;20129;-43
2022/07/29 03:47:36;;;;;;;3.83;1.33;;;15.60;92.30;;;;;;5069972;28;20102;-43
2022/07/29 03:50:06;;;;;;;3.88;1.52;;;15.60;92.40;;;;;;5070816;28;20123;-42
2022/07/29 03:52:32;;;;;;;4.22;1.40;;;15.60;92.50;;;;;;5042325;28;20496;-43
2022/07/29 03:54:59;;;;;;;3.58;1.67;;;15.50;92.50;;;;;;5039913;28;20388;-43
2022/07/29 03:57:28;;;;;;;4.93;1.45;;;15.50;92.60;;;;;;5050121;28;20063;-43
2022/07/29 03:59:56;;;;;;;4.28;1.60;;;15.50;92.50;;;;;;5065590;28;20072;-42
2022/07/29 04:02:22;;;;;;;3.42;1.30;;;15.60;92.60;;;;;;5053782;28;20128;-42
2022/07/29 04:04:49;;;;;;;4.80;1.60;;;15.50;92.50;;;;;;5072369;28;20560;-42
2022/07/29 04:07:16;;;;;;;4.75;1.70;;;15.50;92.50;;;;;;5071114;28;20056;-42
2022/07/29 04:09:43;;;;;;;4.32;1.50;;;15.50;92.60;;;;;;5056960;28;20107;-42
2022/07/29 04:12:10;;;;;;;7.47;1.73;;;15.50;92.60;;;;;;5048267;28;20098;-42
2022/07/29 04:14:37;;;;;;;4.93;1.60;;;15.50;92.70;;;;;;5060062;28;20037;-43
2022/07/29 04:17:05;;;;;;;4.55;1.52;;;15.50;92.70;;;;;;5051419;28;20041;-43
2022/07/29 04:19:32;;;;;;;6.28;1.98;;;15.50;92.80;;;;;;5064082;28;20371;-42
2022/07/29 04:21:59;;;;;;;5.40;1.52;;;15.50;93.00;;;;;;5057863;28;20073;-43
2022/07/29 04:24:25;;;;;;;8.15;1.83;;;15.50;93.10;;;;;;5058025;28;20051;-43
2022/07/29 04:26:52;;;;;;;4.68;1.77;;;15.50;93.20;;;;;;5050296;28;20040;-42
2022/07/29 04:29:19;;;;;;;7.10;1.85;;;15.40;93.10;;;;;;5070499;28;20116;-42
2022/07/29 04:31:46;;;;;;;5.57;1.65;;;15.50;93.10;;;;;;5066026;28;20051;-43
2022/07/29 04:34:14;;;;;;;6.45;2.08;;;15.50;93.10;;;;;;5051856;28;20084;-43
2022/07/29 04:36:41;;;;;;;4.65;1.95;;;15.50;93.10;;;;;;5061736;28;20140;-43
2022/07/29 04:39:07;;;;;;;5.68;1.50;;;15.50;93.10;;;;;;5056335;28;20051;-42
2022/07/29 04:41:34;;;;;;;3.97;1.40;;;15.50;93.00;;;;;;5052173;28;20124;-42
2022/07/29 04:44:04;;;;;;;4.32;1.45;;;15.60;93.00;;;;;;5051372;28;20080;-43
2022/07/29 04:46:31;;;;;;;4.20;1.42;;;15.50;93.10;;;;;;5054332;28;20045;-42
2022/07/29 04:48:58;;;;;;;9.70;1.52;;;15.50;93.10;;;;;;5064966;28;20124;-43
2022/07/29 04:51:26;;;;;;;3.65;1.58;;;15.50;93.10;;;;;;5071959;28;20054;-43
2022/07/29 04:53:53;;;;;;;2.65;1.60;;;15.50;93.00;;;;;;5067065;28;20550;-43
2022/07/29 04:56:19;;;;;;;4.22;1.77;;;15.50;93.00;;;;;;5054190;28;20076;-43
2022/07/29 04:58:46;;;;;;;7.32;2.10;;;15.50;93.10;;;;;;5052872;28;20072;-42
2022/07/29 05:01:14;;;;;;;4.57;1.60;;;15.50;93.20;;;;;;5053808;28;20118;-42
2022/07/29 05:03:40;;;;;;;3.92;1.70;;;15.50;93.20;;;;;;5052765;28;20045;-43
2022/07/29 05:06:07;;;;;;;4.72;1.73;;;15.50;93.20;;;;;;5067808;28;20041;-43
2022/07/29 05:08:35;;;;;;;4.80;1.50;;;15.50;93.20;;;;;;5067048;28;20155;-43
2022/07/29 05:11:02;;;;;;;7.82;1.83;;;15.50;93.30;;;;;;5073288;28;20101;-43
2022/07/29 05:13:29;;;;;;;2.50;1.50;;;15.50;93.20;;;;;;5064632;28;20041;-43
2022/07/29 05:15:58;;;;;;;5.85;1.60;;;15.50;93.30;;;;;;5053181;28;20177;-42
2022/07/29 05:18:24;;;;;;;5.88;1.55;;;15.50;93.40;;;;;;5061830;28;20519;-41
2022/07/29 05:20:51;;;;;;;7.38;1.67;;;15.50;93.20;;;;;;5056404;28;20046;-42
2022/07/29 05:23:18;;;;;;;7.07;1.58;;;15.60;93.30;;;;;;5061406;28;20052;-42
2022/07/29 05:25:46;;;;;;;6.95;1.60;;;15.60;93.30;;;;;;5050712;28;20132;-42
2022/07/29 05:28:13;;;;;;;6.25;1.60;;;15.50;93.20;;;;;;5051080;28;20038;-42
2022/07/29 05:30:40;;;;;;;7.55;2.13;;;15.60;93.30;;;;;;5053191;28;20041;-42
2022/07/29 05:33:07;;;;;;;5.88;1.73;;;15.60;93.40;;;;;;5052172;28;20186;-42
2022/07/29 05:35:34;;;;;;;4.35;1.58;;;15.60;93.50;;;;;;5070916;28;20076;-42
2022/07/29 05:38:01;;;;;;;3.92;1.83;;;15.60;93.40;;;;;;5063748;28;20091;-42
2022/07/29 05:40:28;;;;;;;4.47;1.70;;;15.60;93.50;;;;;;5041864;28;20110;-42
2022/07/29 05:42:56;;;;;;;5.82;1.92;;;15.60;93.50;;;;;;5052299;28;20323;-42
2022/07/29 05:45:24;;;;;;;5.95;1.65;;;15.60;93.50;;;;;;5042309;28;20566;-42
2022/07/29 05:47:51;;;;;;;5.85;1.90;;;15.70;93.60;;;;;;5055264;28;20119;-43
2022/07/29 05:50:18;;;;;;;5.00;1.67;;;15.60;93.60;;;;;;5055235;28;20643;-42
2022/07/29 05:52:45;;;;;;;7.80;2.00;;;15.70;93.50;;;;;;5062694;28;20048;-43
2022/07/29 05:55:12;;;;;;;4.38;1.90;;;15.70;93.70;;;;;;5067828;28;20140;-43
2022/07/29 05:57:38;;;;;;;7.13;1.80;;;15.70;93.70;;;;;;5042855;28;20041;-42
2022/07/29 06:00:08;;;;;;;5.30;1.50;;;15.70;93.50;;;;;;5052906;28;20040;-42
2022/07/29 06:02:35;;;;;;;5.30;1.90;;;15.80;93.70;;;;;;5067149;28;20060;-42
2022/07/29 06:05:02;;;;;;;4.80;2.00;;;15.80;93.80;;;;;;5036320;28;20565;-43
2022/07/29 06:07:29;;;;;;;6.10;1.90;;;15.80;93.80;;;;;;5052176;28;20408;-42
2022/07/29 06:09:55;;;;;;;6.15;2.08;;;15.90;93.80;;;;;;5051171;28;20076;-42
2022/07/29 06:12:23;;;;;;;4.15;1.80;;;15.90;93.80;;;;;;5059627;28;20119;-42
2022/07/29 06:14:49;;;;;;;7.35;2.00;;;15.90;93.90;;;;;;5054022;28;20245;-42
2022/07/29 06:17:18;;;;;;;3.92;1.65;;;16.00;93.80;;;;;;5048681;28;20053;-43
2022/07/29 06:19:45;;;;;;;4.68;1.90;;;16.10;93.90;;;;;;5050444;28;20068;-43
2022/07/29 06:22:12;;;;;;;5.65;1.90;;;16.10;93.70;;;;;;5049513;28;20612;-42
2022/07/29 06:24:41;;;;;;;6.47;1.73;;;16.20;93.70;;;;;;5052553;28;20477;-43
2022/07/29 06:27:08;;;;;;;6.50;2.45;;;16.20;93.50;;;;;;5046583;28;20049;-43
2022/07/29 06:29:35;;;;;;;4.32;2.03;;;16.30;93.60;;;;;;5054926;28;20134;-43
2022/07/29 06:32:02;;;;;;;6.30;1.77;;;16.40;93.60;;;;;;5036326;28;20321;-43
2022/07/29 06:34:30;;;;;;;3.80;2.05;;;16.40;93.70;;;;;;5043730;28;20041;-42
2022/07/29 06:36:57;;;;;;;5.28;2.10;;;16.50;93.30;;;;;;5048458;28;20156;-43
2022/07/29 06:39:24;;;;;;;3.75;1.70;;;16.50;93.10;;;;;;5048330;28;20145;-42
2022/07/29 06:41:51;;;;;;;9.02;2.40;;;16.60;93.10;;;;;;5047184;28;20048;-43
2022/07/29 06:44:18;;;;;;;5.13;1.90;;;16.60;93.10;;;;;;5061621;28;20045;-43
2022/07/29 06:46:46;;;;;;;7.63;1.90;;;16.70;93.20;;;;;;5046657;28;20391;-42
2022/07/29 06:49:14;;;;;;;5.70;1.67;;;16.70;93.00;;;;;;5049390;28;20041;-43
2022/07/29 06:51:42;;;;;;;6.32;1.90;;;16.70;92.80;;;;;;5043684;28;20049;-43
2022/07/29 06:54:08;;;;;;;7.93;1.92;;;16.70;92.80;;;;;;5035813;28;20089;-42
2022/07/29 06:56:37;;;;;;;6.20;1.65;;;16.70;92.80;;;;;;5038568;28;20037;-43
2022/07/29 06:59:04;;;;;;;4.30;1.88;;;16.70;92.70;;;;;;5038359;28;20482;-43
2022/07/29 07:01:30;;;;;;;7.53;2.28;;;16.80;92.70;;;;;;5044946;28;20132;-42
2022/07/29 07:03:57;;;;;;;4.65;1.65;;;16.80;92.50;;;;;;5058590;28;20540;-42
2022/07/29 07:06:24;;;;;;;3.10;1.60;;;16.90;92.40;;;;;;5050290;28;20083;-42
2022/07/29 07:08:52;;;;;;;4.47;1.50;;;16.90;92.40;;;;;;5050743;28;20135;-43
2022/07/29 07:11:19;;;;;;;5.72;1.73;;;16.90;92.20;;;;;;5050258;28;20049;-43
2022/07/29 07:13:45;;;;;;;8.35;2.45;;;16.90;92.10;;;;;;5049521;28;20081;-42
2022/07/29 07:16:12;;;;;;;2.65;1.67;;;16.90;92.10;;;;;;5039836;28;20127;-42
2022/07/29 07:18:39;;;;;;;6.50;1.80;;;17.00;92.00;;;;;;5055203;28;20053;-42
2022/07/29 07:21:06;;;;;;;4.35;1.83;;;17.00;92.10;;;;;;5047744;28;20136;-42
2022/07/29 07:23:33;;;;;;;5.72;1.90;;;17.00;92.10;;;;;;5050384;28;20403;-42
2022/07/29 07:26:01;;;;;;;6.18;1.60;;;17.10;92.10;;;;;;5050063;28;20041;-42
2022/07/29 07:28:28;;;;;;;8.57;1.90;;;17.10;92.00;;;;;;5059763;28;20041;-42
2022/07/29 07:30:54;;;;;;;8.45;1.95;;;17.20;92.00;;;;;;5052364;28;20137;-43
2022/07/29 07:33:21;;;;;;;5.53;1.80;;;17.20;91.90;;;;;;5050307;28;20442;-43
2022/07/29 07:35:48;;;;;;;6.55;2.10;;;17.20;92.20;;;;;;5050744;28;20072;-43
2022/07/29 07:38:15;;;;;;;6.35;1.95;;;17.30;91.80;;;;;;5045437;28;20136;-43
2022/07/29 07:40:41;;;;;;;6.03;2.35;;;17.30;91.70;;;;;;5037634;28;20041;-43
2022/07/29 07:43:10;;;;;;;5.82;1.85;;;17.40;91.70;;;;;;5041441;28;20127;-42
2022/07/29 07:45:37;;;;;;;5.00;1.92;;;17.40;91.70;;;;;;5043634;28;20128;-43
2022/07/29 07:48:04;;;;;;;6.05;2.30;;;17.50;91.60;;;;;;5046244;28;20148;-43
2022/07/29 07:50:31;;;;;;;7.38;2.00;;;17.50;91.40;;;;;;5051668;28;20130;-41
2022/07/29 07:52:58;;;;;;;5.70;2.15;;;17.60;91.40;;;;;;5049295;28;20076;-42
2022/07/29 07:55:25;;;;;;;5.88;2.15;;;17.60;91.10;;;;;;5051319;28;20049;-42
2022/07/29 07:57:52;;;;;;;7.80;2.05;;;17.60;91.00;;;;;;5050686;28;20044;-42
2022/07/29 08:00:20;;;;;;;4.78;2.10;;;17.60;91.40;;;;;;5051375;28;20059;-41
2022/07/29 08:02:46;;;;;;;6.63;1.98;;;17.70;91.10;;;;;;5049653;28;20127;-42
2022/07/29 08:05:16;;;;;;;7.32;2.45;;;17.80;91.00;;;;;;5049335;28;20048;-41
2022/07/29 08:07:44;;;;;;;8.40;2.33;;;17.80;90.90;;;;;;5048873;28;20467;-41
2022/07/29 08:10:11;;;;;;;8.93;1.90;;;17.90;91.00;;;;;;5050279;28;20378;-42
2022/07/29 08:12:38;;;;;;;5.88;2.08;;;17.90;90.80;;;;;;5050682;28;20143;-42
2022/07/29 08:15:07;;;;;;;7.45;2.20;;;18.00;90.70;;;;;;5044131;28;20041;-42
2022/07/29 08:17:35;;;;;;;7.20;2.08;;;18.00;90.50;;;;;;5042999;28;20060;-42
2022/07/29 08:20:02;;;;;;;5.20;1.90;;;18.10;90.50;;;;;;5044803;28;20063;-42
2022/07/29 08:22:29;;;;;;;5.95;2.13;;;18.20;90.40;;;;;;5039638;28;20387;-42
2022/07/29 08:24:56;;;;;;;10.40;2.17;;;18.30;90.40;;;;;;5050836;28;20135;-42
2022/07/29 08:27:22;;;;;;;7.78;2.10;;;18.40;90.40;;;;;;5052320;28;20126;-42
2022/07/29 08:29:49;;;;;;;5.65;2.10;;;18.50;90.20;;;;;;5053557;28;20052;-41
2022/07/29 08:32:16;;;;;;;5.97;2.03;;;18.70;90.20;;;;;;5047207;28;20049;-41
2022/07/29 08:34:45;;;;;;;3.63;1.90;;;18.70;90.30;;;;;;5055461;28;20075;-42
2022/07/29 08:37:12;;;;;;;6.95;1.83;;;18.90;90.00;;;;;;5074435;28;20044;-42
2022/07/29 08:39:39;;;;;;;8.55;2.30;;;18.90;90.00;;;;;;5057075;28;20081;-42
2022/07/29 08:42:06;;;;;;;3.67;2.00;;;18.90;89.60;;;;;;5049743;28;20123;-42
2022/07/29 08:44:33;;;;;;;3.65;1.73;;;19.00;89.60;;;;;;5059326;28;20384;-42
2022/07/29 08:47:00;;;;;;;6.47;2.08;;;19.00;89.60;;;;;;5053530;28;20087;-42
2022/07/29 08:49:27;;;;;;;8.32;1.95;;;19.10;89.40;;;;;;5052075;28;20120;-42
2022/07/29 08:51:55;;;;;;;4.68;2.10;;;19.20;89.50;;;;;;5045863;28;20140;-42
2022/07/29 08:54:22;;;;;;;7.10;1.88;;;19.20;89.30;;;;;;5055881;28;20044;-42
2022/07/29 08:56:49;;;;;;;8.23;1.77;;;19.20;89.40;;;;;;5053184;28;20444;-43
2022/07/29 08:59:16;;;;;;;4.78;1.80;;;19.30;89.60;;;;;;5053722;28;20052;-43
2022/07/29 09:01:43;;;;;;;6.95;2.25;;;19.40;89.40;;;;;;5046505;28;20037;-42
2022/07/29 09:04:11;;;;;;;4.63;1.80;;;19.40;89.00;;;;;;5046449;28;20470;-42
2022/07/29 09:06:40;;;;;;;8.52;2.00;;;19.40;89.30;;;;;;5035606;28;20473;-43
2022/07/29 09:09:08;;;;;;;4.80;2.10;;;19.30;88.70;;;;;;5035448;28;20046;-42
2022/07/29 09:11:35;;;;;;;9.45;2.90;;;19.40;88.50;;;;;;5045526;28;20041;-43
2022/07/29 09:14:02;;;;;;;10.93;2.25;;;19.30;88.50;;;;;;5056038;28;20456;-43
2022/07/29 09:16:50;;;;;;;7.10;2.38;;;19.30;88.70;;;;;;5054866;28;20531;-42
2022/07/29 09:19:24;;;;;;;7.47;2.50;;;19.30;88.60;;;;;;5055708;28;20129;-42
2022/07/29 09:22:00;;;;;;;5.75;2.47;;;19.30;89.30;;;;;;5054043;28;20037;-43
2022/07/29 09:24:43;;;;;;;9.60;2.75;;;19.30;89.40;;;;;;5055854;28;20087;-43
2022/07/29 09:27:21;;;;;;;6.28;2.67;;;19.30;89.00;;;;;;5052808;28;20090;-43
2022/07/29 09:29:48;;;;;;;7.50;2.83;;;19.30;88.90;;;;;;5055419;28;20368;-42
2022/07/29 09:32:15;;;;;;;11.75;3.20;;;19.20;88.90;;;;;;5055230;28;20126;-43
2022/07/29 09:34:42;;;;;;;6.78;2.47;;;19.20;88.90;;;;;;5055474;28;20804;-43
2022/07/29 09:37:08;;;;;;;9.38;3.05;;;19.20;89.00;;;;;;5055612;28;20045;-42
2022/07/29 09:39:36;;;;;;;7.13;2.42;;;19.20;89.40;;;;;;5055262;28;20053;-43
2022/07/29 09:42:05;;;;;;;9.93;2.47;;;19.20;89.70;;;;;;5055277;28;20128;-42
2022/07/29 09:44:45;;;;;;;5.30;2.30;;;19.20;90.30;;;;;;5054145;28;20115;-43
2022/07/29 09:47:12;;;;;;;5.65;2.08;;;19.30;90.40;;;;;;5054328;28;20048;-43
2022/07/29 09:49:52;;;;;;;8.23;2.65;;;19.30;90.20;;;;;;5055222;28;20049;-43
2022/07/29 09:52:19;;;;;;;5.47;2.42;;;19.40;89.70;;;;;;5053822;28;20106;-43
2022/07/29 09:54:46;;;;;;;5.30;2.65;;;19.40;89.90;;;;;;5054808;28;20504;-43
2022/07/29 09:57:25;;;;;;;7.88;2.70;;;19.40;89.50;;;;;;5053606;28;20136;-43
2022/07/29 09:59:57;;;;;;;2.72;2.15;;;19.50;89.10;;;;;;5053886;28;20041;-42
2022/07/29 10:02:27;;;;;;;8.73;2.53;;;19.60;88.80;;;;;;5054835;28;20540;-43
2022/07/29 10:04:54;;;;;;;4.82;2.35;;;19.60;89.10;;;;;;5053990;28;20044;-44
2022/07/29 10:07:21;;;;;;;7.43;2.60;;;19.70;88.70;;;;;;5053776;28;20077;-43
2022/07/29 10:09:53;;;;;;;6.95;2.35;;;19.80;88.70;;;;;;5054550;28;20049;-42
2022/07/29 10:12:19;;;;;;;5.25;2.75;;;19.90;88.70;;;;;;5053244;28;20049;-43
2022/07/29 10:14:48;;;;;;;7.80;2.55;;;19.90;88.20;;;;;;5054743;28;20106;-43
2022/07/29 10:17:14;;;;;;;7.57;2.95;;;19.90;88.20;;;;;;5054653;28;20078;-43
2022/07/29 10:19:42;;;;;;;10.35;2.45;;;19.90;88.10;;;;;;5054663;28;20143;-44
2022/07/29 10:22:09;;;;;;;7.28;2.58;;;20.00;88.30;;;;;;5054758;28;20045;-43
2022/07/29 10:24:37;;;;;;;12.60;2.80;;;20.00;88.20;;;;;;5054270;28;20136;-43
2022/07/29 10:27:06;;;;;;;8.57;2.67;;;20.20;88.60;;;;;;5053164;28;20047;-43
2022/07/29 10:29:32;;;;;;;6.90;2.40;;;20.30;88.30;;;;;;5053538;28;20052;-43
2022/07/29 10:32:11;;;;;;;5.82;2.50;;;20.40;87.70;;;;;;5054306;28;20091;-43
2022/07/29 10:34:54;;;;;;;8.05;2.17;;;20.50;87.10;;;;;;5053224;28;20124;-43
2022/07/29 10:37:25;;;;;;;8.27;2.13;;;20.60;87.30;;;;;;5053017;28;20084;-43
2022/07/29 10:39:55;;;;;;;6.55;2.60;;;20.80;86.40;;;;;;5054277;28;20072;-43
2022/07/29 10:42:23;;;;;;;9.00;2.40;;;20.90;86.20;;;;;;5053350;28;20128;-43
2022/07/29 10:44:50;;;;;;;6.15;2.47;;;21.00;85.50;;;;;;5053998;28;20040;-42
2022/07/29 10:47:22;;;;;;;7.15;2.70;;;21.10;85.70;;;;;;5054086;28;20045;-43
2022/07/29 10:49:57;;;;;;;9.50;2.20;;;21.40;84.70;;;;;;5053835;28;20095;-43
2022/07/29 10:52:27;;;;;;;8.07;2.53;;;21.70;84.50;;;;;;5052698;28;20041;-44
2022/07/29 10:54:55;;;;;;;7.80;2.17;;;22.00;84.10;;;;;;5053248;28;20107;-43
2022/07/29 10:57:26;;;;;;;6.53;2.08;;;22.20;84.10;;;;;;5051988;28;20049;-43
2022/07/29 11:00:28;;;;;;;9.68;2.15;;;22.30;83.40;;;;;;5052585;28;20049;-43
2022/07/29 11:02:57;;;;;;;;;;;22.50;83.00;;;;;;5053813;28;20080;-43
2022/07/29 11:05:26;;;;;;;13.20;2.50;;;22.60;83.20;;;;;;5053754;28;19917;-43
2022/07/29 11:08:20;;;;;;;4.97;2.33;;;22.70;82.50;;;;;;5053354;28;20502;-43
2022/07/29 11:10:47;;;;;;;7.65;2.40;;;22.80;82.00;;;;;;5053542;28;20056;-44
2022/07/29 11:13:16;;;;;;;5.53;2.25;;;23.00;81.30;;;;;;5053482;28;20045;-43
2022/07/29 11:15:55;;;;;;;6.22;2.00;;;23.20;79.50;;;;;;5052570;28;20066;-43
2022/07/29 11:18:23;;;;;;;9.55;2.40;;;23.40;78.70;;;;;;5051981;28;20080;-43
2022/07/29 11:20:52;;;;;;;7.63;2.22;;;23.50;78.10;;;;;;5052481;28;20128;-43
2022/07/29 11:23:24;;;;;;;6.05;2.05;;;23.60;77.70;;;;;;5053159;28;20044;-43
2022/07/29 11:26:14;;;;;;;7.32;2.88;;;23.70;78.00;;;;;;5053165;28;20109;-43
2022/07/29 11:28:54;;;;;;;23.67;4.07;;;24.00;78.10;;;;;;5053248;28;20044;-43
2022/07/29 11:31:34;;;;;;;7.10;2.70;;;24.30;78.00;;;;;;5053207;28;20045;-44
2022/07/29 11:34:23;;;;;;;4.70;2.28;;;24.50;77.20;;;;;;5052855;28;20091;-43
2022/07/29 11:37:18;;;;;;;7.45;2.20;;;24.70;76.90;;;;;;5053220;28;20049;-43
2022/07/29 11:39:46;;;;;;;7.95;2.22;;;24.90;76.50;;;;;;5053114;28;20127;-43
2022/07/29 11:42:43;;;;;;;9.23;2.35;;;25.00;75.40;;;;;;5052937;28;20045;-43
2022/07/29 11:45:13;;;;;;;6.05;2.33;;;25.00;74.20;;;;;;5049921;28;20055;-43
2022/07/29 11:47:41;;;;;;;8.30;2.30;;;25.00;75.20;;;;;;5050122;28;20049;-43
2022/07/29 11:50:12;;;;;;;9.73;2.42;;;25.10;74.30;;;;;;5051679;28;20120;-44
2022/07/29 11:52:44;;;;;;;6.18;2.60;;;25.20;74.60;;;;;;5052836;28;20127;-43
2022/07/29 11:55:13;;;;;;;9.35;2.67;;;25.10;73.10;;;;;;5051185;28;20060;-43
2022/07/29 11:57:47;;;;;;;10.05;2.47;;;25.00;73.20;;;;;;5051961;28;20068;-44
2022/07/29 12:00:21;;;;;;;7.00;2.42;;;25.10;74.20;;;;;;5052877;28;20052;-43
2022/07/29 12:02:48;;;;;;;10.27;2.70;;;25.20;73.30;;;;;;5051421;28;20132;-43
2022/07/29 12:05:16;;;;;;;10.15;2.65;;;25.30;73.40;;;;;;5052634;28;20048;-44
2022/07/29 12:07:43;;;;;;;4.47;2.00;;;25.40;71.90;;;;;;5052385;28;20045;-44
2022/07/29 12:10:11;;;;;;;7.75;2.40;;;25.50;72.20;;;;;;5051303;28;20080;-43
2022/07/29 12:12:39;;;;;;;6.32;2.10;;;25.40;72.20;;;;;;5051624;28;20044;-43
2022/07/29 12:15:17;;;;;;;6.70;2.38;;;25.40;71.60;;;;;;5051778;28;20064;-44
2022/07/29 12:17:44;;;;;;;7.95;2.10;;;25.30;71.80;;;;;;5052475;28;20493;-44
2022/07/29 12:20:12;;;;;;;4.47;2.28;;;25.20;71.90;;;;;;5052107;28;20477;-43
2022/07/29 12:22:43;;;;;;;5.93;2.55;;;25.30;71.80;;;;;;5051303;28;20064;-43
2022/07/29 12:25:13;;;;;;;6.38;2.10;;;25.50;71.50;;;;;;5052674;28;20077;-43
2022/07/29 12:27:40;;;;;;;11.07;2.40;;;25.80;71.70;;;;;;5052667;28;20052;-43
2022/07/29 12:30:08;;;;;;;6.05;2.63;;;26.10;70.30;;;;;;5052485;28;20052;-43
2022/07/29 12:32:35;;;;;;;7.57;2.15;;;26.10;69.00;;;;;;5051235;28;20051;-43
2022/07/29 12:35:07;;;;;;;7.47;2.00;;;26.20;69.40;;;;;;5052220;28;20540;-44
2022/07/29 12:37:34;;;;;;;8.82;2.70;;;26.50;69.40;;;;;;5050704;28;20041;-43
2022/07/29 12:40:02;;;;;;;6.97;2.20;;;26.70;67.80;;;;;;5052380;28;20049;-43
2022/07/29 12:42:29;;;;;;;6.57;2.17;;;26.70;68.10;;;;;;5052536;28;20077;-44
2022/07/29 12:44:55;;;;;;;8.30;2.60;;;26.60;68.30;;;;;;5052335;28;20448;-43
2022/07/29 12:47:22;;;;;;;8.60;2.40;;;26.70;68.10;;;;;;5051258;28;20448;-43
2022/07/29 12:49:49;;;;;;;8.88;2.42;;;26.70;68.60;;;;;;5052117;28;20045;-43
2022/07/29 12:52:27;;;;;;;8.93;2.50;;;26.70;67.60;;;;;;5051454;28;20381;-44
2022/07/29 12:54:53;;;;;;;10.43;2.50;;;26.60;66.90;;;;;;5052498;28;20124;-44
2022/07/29 12:57:22;;;;;;;12.10;2.38;;;26.60;66.70;;;;;;5052178;28;20119;-43
2022/07/29 13:00:07;;;;;;;9.32;2.53;;;26.50;66.60;;;;;;5052194;28;20128;-44